Terminal Aerodrome Forecast
Issued by NWS Wilmington, OH

Current Version | Previous Version | Graphics & Text | Print | Product List | Glossary On
Versions: 1 2 3 4 5 6 7 8 9 10 11 12 13 14 15 16 17 18 19 20 21
000
FTUS41 KILN 231100
TAFILN
TAF
KILN 231128Z 2312/2412 00000KT P6SM OVC018
     FM231500 11003KT P6SM BKN025 OVC150
     FM231800 VRB03KT P6SM SCT025 OVC080
     FM240900 27005KT P6SM SCT015=

USA.gov is the U.S. government's official web portal to all federal, state and local government web resources and services.